Time;durP1;ratioP1;P1;durP2;ratioP2;P2;SDS_P1;SDS_P2;PMS_P1;PMS_P2;Temp;Humidity;BMP_temperature;BMP_pressure;BME280_temperature;BME280_humidity;BME280_pressure;Samples;Min_cycle;Max_cycle;Signal;HPM_P1;HPM_P2
2022/04/04 00:03:50;;;;;;;8.63;5.00;;;;;;;-0.48;68.03;100211.91;12192185;19;20074;-79
2022/04/04 00:07:52;;;;;;;10.45;5.20;;;;;;;-0.51;68.15;100204.13;12218419;19;20353;-80
2022/04/04 00:11:53;;;;;;;8.32;5.20;;;;;;;-0.53;68.69;100207.03;12210571;19;20014;-80
2022/04/04 00:15:55;;;;;;;8.43;4.90;;;;;;;-0.52;68.66;100200.59;12185933;19;20362;-79
2022/04/04 00:19:57;;;;;;;10.27;5.15;;;;;;;-0.53;68.42;100204.31;12210806;19;20011;-78
2022/04/04 00:23:59;;;;;;;12.60;5.65;;;;;;;-0.54;68.89;100201.75;12217045;19;20539;-79
2022/04/04 00:28:00;;;;;;;11.52;6.05;;;;;;;-0.56;68.65;100185.72;12191668;19;20034;-79
2022/04/04 00:32:02;;;;;;;10.55;5.55;;;;;;;-0.56;69.17;100182.16;12213564;19;20006;-79
2022/04/04 00:36:04;;;;;;;10.18;5.10;;;;;;;-0.55;69.05;100183.84;12205480;19;20039;-79
2022/04/04 00:40:08;;;;;;;10.65;5.70;;;;;;;-0.54;69.13;100182.81;12189228;19;20098;-79
2022/04/04 00:44:10;;;;;;;10.45;6.15;;;;;;;-0.55;69.71;100179.28;12205515;19;20073;-79
2022/04/04 00:48:11;;;;;;;9.73;5.67;;;;;;;-0.52;69.57;100178.09;12203902;19;20015;-79
2022/04/04 00:52:13;;;;;;;8.77;5.90;;;;;;;-0.52;69.39;100173.50;12187148;19;20256;-78
2022/04/04 00:56:16;;;;;;;12.38;6.88;;;;;;;-0.52;69.85;100170.81;12205565;19;20413;-78
2022/04/04 01:00:19;;;;;;;10.80;5.43;;;;;;;-0.55;70.12;100164.91;12203108;19;20074;-78
2022/04/04 01:04:21;;;;;;;10.32;6.35;;;;;;;-0.59;69.71;100167.09;12182448;19;20006;-78
2022/04/04 01:08:24;;;;;;;9.88;6.63;;;;;;;-0.62;70.36;100167.44;12210547;19;20090;-79
2022/04/04 01:12:27;;;;;;;11.85;6.75;;;;;;;-0.69;70.79;100163.69;12211977;19;20017;-80
2022/04/04 01:16:29;;;;;;;12.45;6.97;;;;;;;-0.73;71.01;100159.66;12183736;19;20035;-78
2022/04/04 01:20:31;;;;;;;12.18;6.85;;;;;;;-0.80;70.78;100150.53;12203306;19;20085;-78
2022/04/04 01:24:37;;;;;;;10.50;5.78;;;;;;;-0.87;71.70;100147.63;12197721;19;20013;-78
2022/04/04 01:28:39;;;;;;;14.90;6.20;;;;;;;-0.89;72.67;100141.56;12178392;19;20364;-78
2022/04/04 01:32:41;;;;;;;12.52;6.78;;;;;;;-0.89;72.56;100133.44;12202031;19;20083;-79
2022/04/04 01:36:42;;;;;;;10.40;6.45;;;;;;;-0.91;72.18;100127.34;12200632;19;20381;-78
2022/04/04 01:40:44;;;;;;;12.15;6.32;;;;;;;-0.90;72.46;100125.47;12181748;19;20062;-78
2022/04/04 01:44:47;;;;;;;12.20;6.93;;;;;;;-0.94;72.63;100125.81;12200840;19;20020;-80
2022/04/04 01:48:54;;;;;;;13.75;6.72;;;;;;;-0.98;73.02;100129.88;12179347;19;20972;-79
2022/04/04 01:53:25;;;;;;;14.35;7.10;;;;;;;-0.99;72.95;100117.34;12206525;19;20024;-78
2022/04/04 01:57:20;;;;;;;12.65;6.75;;;;;;;-1.01;73.25;100124.81;12193360;19;20018;-78
2022/04/04 02:01:26;;;;;;;10.43;6.78;;;;;;;-1.02;74.05;100123.09;12179388;19;20022;-78
2022/04/04 02:05:28;;;;;;;13.85;6.85;;;;;;;-1.01;73.76;100122.09;12201124;19;20014;-77
2022/04/04 02:09:29;;;;;;;11.98;6.82;;;;;;;-0.96;74.62;100126.97;12205363;19;20018;-79
2022/04/04 02:13:31;;;;;;;11.88;7.28;;;;;;;-0.94;74.30;100125.81;12184069;19;20021;-79
2022/04/04 02:17:33;;;;;;;13.82;6.85;;;;;;;-0.89;73.90;100113.63;12209380;19;20219;-80
2022/04/04 02:21:36;;;;;;;12.13;7.22;;;;;;;-0.86;74.25;100122.28;12206790;19;20002;-79
2022/04/04 02:25:37;;;;;;;12.53;6.63;;;;;;;-0.80;73.99;100121.59;12190191;19;20125;-79
2022/04/04 02:29:39;;;;;;;11.85;7.28;;;;;;;-0.72;73.70;100112.63;12209042;19;20247;-79
2022/04/04 02:33:42;;;;;;;14.68;7.07;;;;;;;-0.66;74.08;100117.34;12183292;19;20086;-79
2022/04/04 02:37:44;;;;;;;11.50;6.82;;;;;;;-0.61;74.03;100119.56;12183159;19;20082;-78
2022/04/04 02:41:46;;;;;;;12.43;7.60;;;;;;;-0.53;74.41;100117.69;12211614;19;20336;-80
2022/04/04 02:45:48;;;;;;;11.57;6.43;;;;;;;-0.48;74.35;100114.47;12198009;19;20007;-79
2022/04/04 02:49:51;;;;;;;14.52;8.35;;;;;;;-0.44;74.54;100115.00;12217666;19;20006;-79
2022/04/04 02:53:52;;;;;;;12.00;6.43;;;;;;;-0.42;74.16;100112.94;12215937;19;20442;-78
2022/04/04 02:57:55;;;;;;;12.68;7.68;;;;;;;-0.37;74.23;100105.16;12192279;19;20368;-78
2022/04/04 03:01:56;;;;;;;12.07;7.13;;;;;;;-0.33;74.02;100109.19;12214813;19;20063;-79
2022/04/04 03:05:58;;;;;;;12.48;6.80;;;;;;;-0.31;74.03;100105.31;12210617;19;20003;-79
2022/04/04 03:10:00;;;;;;;11.55;6.95;;;;;;;-0.24;74.19;100106.31;12198487;19;20025;-78
2022/04/04 03:14:03;;;;;;;11.77;6.80;;;;;;;-0.17;73.56;100100.22;12211758;19;20010;-80
2022/04/04 03:18:05;;;;;;;12.57;7.07;;;;;;;-0.11;73.45;100099.50;12214965;19;21094;-78
2022/04/04 03:22:07;;;;;;;13.35;7.55;;;;;;;-0.07;73.80;100093.56;12191483;19;20355;-81
2022/04/04 03:26:09;;;;;;;15.07;7.07;;;;;;;0.00;73.59;100082.88;12218106;19;20078;-78
2022/04/04 03:30:20;;;;;;;10.95;6.20;;;;;;;0.09;73.31;100078.25;12214473;19;20022;-79
2022/04/04 03:34:22;;;;;;;13.63;7.05;;;;;;;0.13;72.77;100074.19;12187665;19;20023;-79
2022/04/04 03:38:24;;;;;;;11.68;7.40;;;;;;;0.12;72.68;100075.19;12208173;19;20018;-79
2022/04/04 03:42:26;;;;;;;14.93;7.83;;;;;;;0.15;72.75;100072.13;12213542;19;20003;-79
2022/04/04 03:46:27;;;;;;;13.85;7.45;;;;;;;0.15;72.37;100069.44;12187653;19;20018;-77
2022/04/04 03:50:29;;;;;;;11.20;7.03;;;;;;;0.19;72.67;100059.94;12205990;19;20013;-79
2022/04/04 03:54:31;;;;;;;12.18;7.63;;;;;;;0.27;72.70;100059.03;12204116;19;20010;-78
2022/04/04 03:58:33;;;;;;;14.38;6.78;;;;;;;0.32;72.49;100054.78;12193737;19;20344;-79
2022/04/04 04:02:35;;;;;;;11.85;7.20;;;;;;;0.37;71.57;100057.81;12221730;19;20615;-79
2022/04/04 04:06:37;;;;;;;11.02;7.22;;;;;;;0.33;71.50;100044.81;12208417;19;20018;-78
2022/04/04 04:10:39;;;;;;;15.38;8.27;;;;;;;0.29;71.67;100038.03;12200727;19;20017;-80
2022/04/04 04:14:41;;;;;;;12.68;6.90;;;;;;;0.36;71.19;100047.16;12222483;19;20014;-80
2022/04/04 04:18:42;;;;;;;15.90;7.65;;;;;;;0.36;71.58;100042.56;12224915;19;20009;-81
2022/04/04 04:22:45;;;;;;;14.25;7.95;;;;;;;0.37;71.47;100041.53;12191277;19;20433;-80
2022/04/04 04:26:47;;;;;;;11.70;7.53;;;;;;;0.38;71.09;100035.09;12207800;19;20029;-80
2022/04/04 04:30:49;;;;;;;13.32;6.68;;;;;;;0.41;70.51;100031.19;12181624;19;20003;-81
2022/04/04 04:34:51;;;;;;;11.65;6.70;;;;;;;0.51;70.47;100028.25;12210005;19;20488;-79
2022/04/04 04:38:52;;;;;;;12.30;6.85;;;;;;;0.58;70.05;100032.78;12208064;19;20018;-78
2022/04/04 04:42:55;;;;;;;13.10;6.85;;;;;;;0.59;70.03;100026.31;12183672;19;20028;-79
2022/04/04 04:46:57;;;;;;;12.73;7.10;;;;;;;0.65;70.03;100028.34;12191980;19;20070;-78
2022/04/04 04:50:59;;;;;;;11.93;6.82;;;;;;;0.64;69.38;100033.94;12195425;19;20054;-77
2022/04/04 04:55:01;;;;;;;13.52;8.00;;;;;;;0.65;69.22;100025.63;12177881;19;20010;-78
2022/04/04 04:59:03;;;;;;;;;;;;;;;0.63;69.04;100010.56;12196101;19;20007;-77
2022/04/04 05:07:25;;;;;;;12.52;6.38;;;;;;;0.62;69.43;100004.25;12187012;19;20014;-78
2022/04/04 05:11:27;;;;;;;13.40;6.90;;;;;;;0.58;69.43;100004.81;12209387;19;20460;-78
2022/04/04 05:15:29;;;;;;;11.45;7.47;;;;;;;0.48;69.92;99996.06;12203993;19;20018;-77
2022/04/04 05:19:32;;;;;;;13.38;6.85;;;;;;;0.44;70.02;99995.59;12187245;19;20507;-78
2022/04/04 05:23:34;;;;;;;11.47;6.97;;;;;;;0.36;70.26;99988.38;12203494;19;20018;-77
2022/04/04 05:27:41;;;;;;;13.45;7.18;;;;;;;0.32;70.39;99988.88;12210088;19;20788;-78
2022/04/04 05:31:45;;;;;;;11.45;6.38;;;;;;;0.31;70.36;99995.34;12176719;19;20492;-77
2022/04/04 05:35:47;;;;;;;11.23;6.53;;;;;;;0.29;70.52;99986.53;12193601;19;20495;-78
2022/04/04 05:39:49;;;;;;;13.57;7.23;;;;;;;0.34;70.20;99984.97;12182733;19;20018;-77
2022/04/04 05:43:50;;;;;;;15.90;7.05;;;;;;;0.39;70.08;99981.75;12192508;19;20018;-78
2022/04/04 05:47:52;;;;;;;11.15;6.22;;;;;;;0.42;70.32;99984.09;12204193;19;20108;-78
2022/04/04 05:51:54;;;;;;;12.25;6.57;;;;;;;0.47;70.11;99994.38;12179217;19;20253;-78
2022/04/04 05:56:03;;;;;;;13.13;6.68;;;;;;;0.49;70.16;99990.47;12200249;19;20014;-78
2022/04/04 06:00:11;;;;;;;11.70;6.67;;;;;;;0.56;69.96;99983.28;12206737;19;20417;-78
2022/04/04 06:04:13;;;;;;;10.18;6.30;;;;;;;0.62;69.78;99979.00;12171132;19;20312;-78
2022/04/04 06:08:17;;;;;;;12.80;6.28;;;;;;;0.75;69.63;99984.69;12197461;19;20030;-77
2022/04/04 06:12:19;;;;;;;;;;;;;;;0.85;69.27;99982.56;12194315;19;20006;-77
2022/04/04 06:16:23;;;;;;;13.73;6.25;;;;;;;0.98;68.92;99984.66;12183185;19;19939;-76
2022/04/04 06:20:25;;;;;;;15.27;6.72;;;;;;;1.13;68.24;99980.09;12219746;19;20006;-77
2022/04/04 06:24:28;;;;;;;11.90;5.72;;;;;;;1.22;67.68;99970.00;12219974;19;20077;-77
2022/04/04 06:28:31;;;;;;;10.57;6.22;;;;;;;1.38;66.92;99973.59;12189690;19;20015;-77
2022/04/04 06:32:33;;;;;;;;;;;;;;;1.53;66.38;99969.84;12207250;19;20377;-78
2022/04/04 06:36:37;;;;;;;10.90;7.13;;;;;;;1.65;65.73;99972.09;12211527;19;20506;-76
2022/04/04 06:40:39;;;;;;;13.75;6.45;;;;;;;1.65;65.47;99961.22;12186507;19;20021;-76
2022/04/04 06:44:42;;;;;;;17.88;6.63;;;;;;;1.65;65.45;99970.22;12214347;19;20010;-76
2022/04/04 06:48:45;;;;;;;15.73;6.78;;;;;;;1.72;65.29;99962.13;12202602;19;20002;-77
2022/04/04 06:52:47;;;;;;;;;;;;;;;1.69;65.21;99959.81;12191521;19;20010;-76
2022/04/04 06:57:09;;;;;;;12.85;6.55;;;;;;;1.69;65.00;99966.06;12200750;19;19978;-79
2022/04/04 07:01:12;;;;;;;11.48;6.78;;;;;;;1.70;65.09;99959.63;12184556;19;20018;-77
2022/04/04 07:05:15;;;;;;;12.05;6.13;;;;;;;1.78;65.01;99966.81;12203860;19;20113;-78
2022/04/04 07:09:16;;;;;;;12.18;6.22;;;;;;;1.83;64.85;99961.66;12207216;19;20014;-76
2022/04/04 07:13:18;;;;;;;12.25;6.47;;;;;;;1.90;64.47;99961.75;12178443;19;20634;-75
2022/04/04 07:17:20;;;;;;;10.47;5.23;;;;;;;2.07;64.29;99949.63;12203070;19;20018;-76
2022/04/04 07:21:23;;;;;;;12.38;6.75;;;;;;;2.27;63.54;99947.97;12210024;19;20019;-76
2022/04/04 07:25:28;;;;;;;13.50;6.65;;;;;;;2.43;62.79;99944.16;12180945;19;20014;-77
2022/04/04 07:29:30;;;;;;;14.02;5.97;;;;;;;2.47;61.91;99936.47;12209167;19;20018;-77
2022/04/04 07:33:32;;;;;;;11.02;6.47;;;;;;;2.60;62.11;99933.03;12194595;19;20089;-77
2022/04/04 07:37:35;;;;;;;13.63;6.93;;;;;;;2.84;61.70;99932.59;12180636;19;20035;-77
2022/04/04 07:41:37;;;;;;;13.00;6.53;;;;;;;3.19;61.83;99933.50;12206674;19;20010;-77
2022/04/04 07:45:39;;;;;;;10.00;5.72;;;;;;;3.48;60.85;99920.72;12206532;19;20022;-76
2022/04/04 07:49:44;;;;;;;10.68;5.70;;;;;;;3.48;59.42;99923.44;12186752;19;20010;-76
2022/04/04 07:53:46;;;;;;;9.60;5.80;;;;;;;3.27;59.64;99918.91;12201509;19;20027;-76
2022/04/04 07:57:48;;;;;;;9.73;6.88;;;;;;;3.25;59.65;99912.81;12183017;19;20038;-77
2022/04/04 08:01:51;;;;;;;12.57;7.10;;;;;;;3.44;60.27;99905.78;12204351;19;20015;-77
2022/04/04 08:05:54;;;;;;;12.57;6.82;;;;;;;3.72;59.64;99902.13;12197925;19;20002;-76
2022/04/04 08:09:56;;;;;;;14.43;7.05;;;;;;;3.82;59.50;99895.28;12187642;19;20023;-78
2022/04/04 08:13:57;;;;;;;12.17;7.27;;;;;;;3.98;58.34;99896.78;12194959;19;20023;-77
2022/04/04 08:18:00;;;;;;;11.90;7.32;;;;;;;4.28;58.59;99891.84;12207704;19;20015;-77
2022/04/04 08:22:02;;;;;;;10.57;5.88;;;;;;;4.14;58.10;99890.16;12187244;19;20400;-76
2022/04/04 08:26:04;;;;;;;11.05;7.40;;;;;;;4.04;58.03;99893.25;12198810;19;20010;-76
2022/04/04 08:30:08;;;;;;;14.70;8.23;;;;;;;4.16;57.80;99881.75;12207045;19;20014;-77
2022/04/04 08:34:10;;;;;;;13.50;7.90;;;;;;;4.34;57.56;99871.06;12160065;19;21955;-77
2022/04/04 08:38:15;;;;;;;11.93;6.75;;;;;;;4.53;57.30;99863.97;12207856;19;20499;-76
2022/04/04 08:42:20;;;;;;;;;;;;;;;4.53;56.56;99853.06;12206116;19;20029;-77
2022/04/04 08:46:33;;;;;;;16.83;7.15;;;;;;;4.75;56.45;99859.97;12184754;19;20418;-76
2022/04/04 08:50:37;;;;;;;12.50;7.47;;;;;;;4.92;56.24;99841.25;12196229;19;20034;-77
2022/04/04 08:54:39;;;;;;;12.88;7.28;;;;;;;5.18;55.38;99842.28;12200810;19;20019;-76
2022/04/04 08:58:42;;;;;;;12.93;7.10;;;;;;;5.44;55.23;99834.00;12173508;19;20038;-77
2022/04/04 09:03:06;;;;;;;11.20;7.38;;;;;;;6.13;53.90;99829.69;12193876;19;22147;-77
2022/04/04 09:07:12;;;;;;;17.08;8.18;;;;;;;6.12;52.69;99827.16;12175888;19;20038;-77
2022/04/04 09:11:14;;;;;;;16.45;7.63;;;;;;;6.25;53.31;99824.34;12199386;19;20062;-77
2022/04/04 09:15:16;;;;;;;13.43;7.75;;;;;;;6.45;53.59;99813.22;12198168;19;20028;-79
2022/04/04 09:19:31;;;;;;;16.07;7.60;;;;;;;6.71;52.80;99801.22;12175119;19;20014;-77
2022/04/04 09:23:34;;;;;;;13.02;7.47;;;;;;;6.98;52.20;99790.00;12211608;19;20590;-78
2022/04/04 09:27:37;;;;;;;14.00;6.82;;;;;;;7.23;50.04;99787.22;12196296;19;20025;-78
2022/04/04 09:32:05;;;;;;;12.95;7.85;;;;;;;7.10;48.41;99771.72;12176786;19;20014;-78
2022/04/04 09:36:08;;;;;;;14.48;6.40;;;;;;;7.32;48.05;99752.94;12196729;19;20467;-77
2022/04/04 09:40:16;;;;;;;9.32;5.55;;;;;;;7.52;47.24;99752.66;12183538;19;20069;-77
2022/04/04 09:44:25;;;;;;;11.65;5.90;;;;;;;7.90;46.14;99748.75;12197639;19;20009;-79
2022/04/04 09:48:27;;;;;;;6.25;4.45;;;;;;;8.47;44.17;99740.91;12206641;19;20022;-77
2022/04/04 09:52:49;;;;;;;7.00;4.18;;;;;;;8.52;42.39;99742.94;12179564;19;20019;-78
2022/04/04 09:57:07;;;;;;;7.57;4.50;;;;;;;8.21;41.07;99728.44;12201561;19;20413;-79
2022/04/04 10:01:12;;;;;;;6.78;5.00;;;;;;;8.21;41.00;99722.94;12179314;19;20006;-79
2022/04/04 10:05:16;;;;;;;8.00;4.82;;;;;;;8.18;41.36;99707.78;12195661;19;20033;-82
2022/04/04 10:09:18;;;;;;;9.35;4.93;;;;;;;8.53;41.23;99697.91;12201625;19;20031;-80
2022/04/04 10:13:21;;;;;;;6.63;4.43;;;;;;;9.06;39.18;99697.72;12182662;19;20006;-82
2022/04/04 10:17:23;;;;;;;;;;;;;;;8.81;38.53;99675.22;12192222;19;20255;-80
2022/04/04 10:21:26;;;;;;;8.25;4.78;;;;;;;8.62;38.96;99682.75;12208498;19;19919;-80
2022/04/04 10:25:31;;;;;;;8.07;3.90;;;;;;;8.56;39.21;99670.81;12183764;19;20007;-83
2022/04/04 10:29:41;;;;;;;8.55;4.47;;;;;;;8.52;40.11;99672.38;12205078;19;20500;-81
2022/04/04 10:33:43;;;;;;;7.70;4.53;;;;;;;8.73;39.03;99656.34;12202336;19;20370;-83
2022/04/04 10:37:46;;;;;;;10.23;4.35;;;;;;;9.18;38.69;99639.97;12181604;19;20495;-83
2022/04/04 10:41:47;;;;;;;9.35;4.47;;;;;;;9.30;38.39;99621.50;12192349;19;20015;-81
2022/04/04 10:46:01;;;;;;;5.82;4.13;;;;;;;9.33;36.96;99611.94;12180044;19;20020;-80
2022/04/04 10:50:22;;;;;;;6.97;4.40;;;;;;;9.27;36.95;99627.50;12197386;19;20034;-82
2022/04/04 10:54:24;;;;;;;6.13;4.22;;;;;;;9.78;38.04;99606.38;12203225;19;20010;-81
2022/04/04 10:58:26;;;;;;;5.88;4.05;;;;;;;9.89;35.61;99607.41;12180089;19;20623;-80
2022/04/04 11:02:28;;;;;;;5.95;4.32;;;;;;;10.14;36.55;99584.97;12211787;19;20444;-83
2022/04/04 11:11:01;;;;;;;6.32;4.28;;;;;;;10.60;35.93;99560.00;12193434;19;20014;-83
2022/04/04 11:15:06;;;;;;;6.95;4.40;;;;;;;10.57;36.15;99549.50;12208316;19;20373;-83
2022/04/04 11:19:10;;;;;;;7.78;4.40;;;;;;;10.79;36.00;99553.06;12184953;19;20010;-85
2022/04/04 11:23:12;;;;;;;9.75;5.13;;;;;;;10.88;35.69;99547.91;12216615;19;20033;-81
2022/04/04 11:27:14;;;;;;;6.65;4.75;;;;;;;10.77;34.85;99544.22;12207188;19;20002;-82
2022/04/04 11:31:19;;;;;;;;;;;;;;;10.43;34.47;99538.84;12195201;19;20103;-83
2022/04/04 11:35:34;;;;;;;6.43;4.47;;;;;;;10.25;35.26;99533.59;12219469;19;19914;-84
2022/04/04 11:39:36;;;;;;;8.40;4.43;;;;;;;10.61;35.46;99515.63;12221792;19;20025;-80
2022/04/04 11:43:40;;;;;;;7.20;4.50;;;;;;;11.07;35.17;99505.13;12204939;19;20038;-82
2022/04/04 11:48:02;;;;;;;9.23;4.40;;;;;;;11.54;34.95;99504.47;12254783;19;20513;-83
2022/04/04 11:52:06;;;;;;;7.47;5.00;;;;;;;12.06;33.61;99505.66;12196123;19;20353;-83
2022/04/04 11:56:13;;;;;;;6.55;4.22;;;;;;;12.38;31.75;99485.41;12207185;19;20375;-84
2022/04/04 12:00:32;;;;;;;6.18;3.95;;;;;;;12.75;31.95;99479.72;12203792;19;20468;-82
2022/04/04 12:04:39;;;;;;;8.40;4.40;;;;;;;12.64;30.84;99473.34;12178860;19;20002;-83
2022/04/04 12:08:44;;;;;;;;;;;;;;;12.87;31.90;99473.94;12212902;19;20015;-83
2022/04/04 12:12:56;;;;;;;7.18;4.70;;;;;;;13.05;31.66;99454.03;12207849;19;19931;-83
2022/04/04 12:16:58;;;;;;;7.80;4.40;;;;;;;13.14;31.61;99438.56;12207071;19;20383;-84
2022/04/04 12:21:02;;;;;;;9.13;4.70;;;;;;;13.03;31.28;99434.16;12205042;19;20031;-81
2022/04/04 12:25:12;;;;;;;7.60;4.80;;;;;;;13.44;31.55;99439.69;12191574;19;20023;-80
2022/04/04 12:29:14;;;;;;;7.60;5.13;;;;;;;13.17;30.63;99424.19;12207353;19;20487;-83
2022/04/04 12:33:16;;;;;;;14.45;5.10;;;;;;;12.93;31.07;99439.66;12209943;19;20018;-82
2022/04/04 12:37:19;;;;;;;7.80;4.70;;;;;;;12.83;31.66;99409.22;12174735;19;20010;-81
2022/04/04 12:41:20;;;;;;;7.25;4.68;;;;;;;12.47;32.00;99409.16;12204821;19;20058;-80
2022/04/04 12:45:22;;;;;;;10.70;4.68;;;;;;;12.20;32.08;99390.00;12207856;19;20002;-82
2022/04/04 12:49:26;;;;;;;7.95;4.70;;;;;;;12.85;31.35;99388.50;12180254;19;20002;-81
2022/04/04 12:53:52;;;;;;;6.65;4.13;;;;;;;12.57;30.88;99406.41;12214269;19;20020;-82
2022/04/04 12:57:55;;;;;;;8.60;4.38;;;;;;;11.46;32.21;99369.75;12191701;19;20489;-83
2022/04/04 13:02:15;;;;;;;6.93;4.78;;;;;;;11.13;32.59;99373.66;12212710;19;20007;-82
2022/04/04 13:06:18;;;;;;;5.30;3.78;;;;;;;11.03;33.27;99374.38;12195245;19;20615;-81
2022/04/04 13:10:24;;;;;;;6.80;4.72;;;;;;;11.10;32.44;99363.97;12186627;19;20010;-82
2022/04/04 13:14:26;;;;;;;5.78;4.10;;;;;;;10.99;32.82;99366.91;12200229;19;20468;-81
2022/04/04 13:18:31;;;;;;;10.32;3.95;;;;;;;11.25;33.17;99360.50;12205281;19;20034;-82
2022/04/04 13:22:33;;;;;;;7.35;4.50;;;;;;;11.09;33.16;99350.44;12184185;19;20003;-81
2022/04/04 13:26:36;;;;;;;6.45;4.30;;;;;;;10.77;33.27;99337.53;12200310;19;20021;-80
2022/04/04 13:30:43;;;;;;;6.53;3.75;;;;;;;10.44;33.50;99335.81;12204651;19;20078;-81
2022/04/04 13:34:50;;;;;;;5.40;3.75;;;;;;;10.41;33.86;99336.34;12176096;19;20017;-80
2022/04/04 13:38:55;;;;;;;5.63;3.55;;;;;;;10.22;33.51;99335.84;12202726;19;20007;-79
2022/04/04 13:42:57;;;;;;;7.72;3.95;;;;;;;10.09;34.15;99330.78;12175684;19;20017;-81
2022/04/04 13:46:59;;;;;;;5.60;3.42;;;;;;;10.23;34.29;99323.75;12198996;19;20014;-83
2022/04/04 13:51:01;;;;;;;5.57;4.20;;;;;;;9.96;33.96;99321.81;12210049;19;20011;-81
2022/04/04 13:55:09;;;;;;;6.45;3.92;;;;;;;9.73;34.46;99316.59;12176594;19;20011;-80
2022/04/04 13:59:11;;;;;;;;;;;;;;;9.59;35.29;99338.97;12199039;19;20011;-79
2022/04/04 14:03:13;;;;;;;5.28;3.50;;;;;;;9.43;35.15;99317.88;12202411;19;19958;-81
2022/04/04 14:07:15;;;;;;;9.40;3.67;;;;;;;9.53;35.29;99306.97;12174377;19;20070;-80
2022/04/04 14:11:17;;;;;;;5.43;3.85;;;;;;;9.63;35.81;99309.03;12200803;19;20007;-79
2022/04/04 14:15:19;;;;;;;5.15;3.67;;;;;;;9.68;35.98;99300.03;12201134;19;20028;-78
2022/04/04 14:19:21;;;;;;;8.00;4.15;;;;;;;9.78;36.04;99309.22;12168662;19;20007;-79
2022/04/04 14:23:22;;;;;;;9.40;3.80;;;;;;;9.39;36.93;99297.44;12195597;19;20013;-78
2022/04/04 14:27:26;;;;;;;10.40;4.67;;;;;;;9.34;37.29;99300.16;12198266;19;20002;-79
2022/04/04 14:31:29;;;;;;;7.97;4.72;;;;;;;9.10;37.42;99274.78;12174863;19;20277;-78
2022/04/04 14:35:31;;;;;;;7.57;4.57;;;;;;;8.96;38.00;99299.03;12218488;19;20023;-78
2022/04/04 14:39:33;;;;;;;8.65;4.82;;;;;;;8.64;39.43;99277.66;12205700;19;20007;-79
2022/04/04 14:43:37;;;;;;;8.00;4.38;;;;;;;8.58;39.62;99280.59;12186454;19;20483;-80
2022/04/04 14:47:39;;;;;;;8.73;4.40;;;;;;;8.56;39.86;99278.06;12210425;19;20015;-78
2022/04/04 14:51:41;;;;;;;9.43;4.90;;;;;;;8.34;42.47;99296.34;12214485;19;20487;-79
2022/04/04 14:55:43;;;;;;;6.97;4.97;;;;;;;8.12;44.26;99286.09;12186158;19;20021;-78
2022/04/04 14:59:45;;;;;;;8.88;5.10;;;;;;;8.06;44.12;99258.78;12204392;19;20010;-79
2022/04/04 15:03:47;;;;;;;7.90;5.47;;;;;;;8.07;44.02;99253.06;12197025;19;20499;-78
2022/04/04 15:07:49;;;;;;;7.72;5.38;;;;;;;8.11;44.18;99265.19;12212435;19;20018;-80
2022/04/04 15:11:51;;;;;;;12.07;5.50;;;;;;;8.26;43.76;99269.31;12199116;19;20478;-81
2022/04/04 15:15:53;;;;;;;7.72;5.55;;;;;;;8.23;44.39;99276.13;12182380;19;20010;-79
2022/04/04 15:20:15;;;;;;;8.15;5.78;;;;;;;8.26;44.66;99259.16;12205809;19;20350;-79
2022/04/04 15:24:18;;;;;;;5.97;3.90;;;;;;;8.21;45.19;99267.31;12206731;19;20014;-80
2022/04/04 15:28:22;;;;;;;8.68;5.05;;;;;;;8.28;44.63;99251.50;12187038;19;20018;-80
2022/04/04 15:32:24;;;;;;;9.93;5.50;;;;;;;8.35;44.42;99243.09;12206184;19;20388;-80
2022/04/04 15:36:26;;;;;;;9.05;5.45;;;;;;;8.33;44.71;99240.63;12212240;19;20440;-79
2022/04/04 15:40:29;;;;;;;8.82;5.72;;;;;;;8.30;45.34;99248.50;12188747;19;20086;-79
2022/04/04 15:44:32;;;;;;;9.63;5.90;;;;;;;8.27;45.91;99243.50;12205324;19;20014;-80
2022/04/04 15:48:34;;;;;;;10.95;6.15;;;;;;;8.19;46.48;99253.00;12210304;19;20027;-78
2022/04/04 15:52:35;;;;;;;8.35;5.63;;;;;;;8.19;45.87;99245.59;12188630;19;20018;-79
2022/04/04 15:56:40;;;;;;;8.82;6.07;;;;;;;8.14;45.82;99244.66;12209414;19;20014;-80
2022/04/04 16:00:43;;;;;;;7.85;5.82;;;;;;;8.01;46.35;99258.72;12198154;19;20331;-80
2022/04/04 16:04:44;;;;;;;8.45;6.32;;;;;;;7.87;47.23;99247.22;12172464;19;20094;-78
2022/04/04 16:08:47;;;;;;;8.73;5.72;;;;;;;7.86;47.60;99248.28;12210038;19;20087;-79
2022/04/04 16:12:49;;;;;;;9.73;6.57;;;;;;;7.80;47.32;99238.31;12169184;19;20018;-80
2022/04/04 16:16:51;;;;;;;7.47;5.07;;;;;;;7.83;47.12;99243.31;12212145;19;20017;-79
2022/04/04 16:21:01;;;;;;;17.02;7.22;;;;;;;7.87;47.17;99239.81;12206141;19;20139;-79
2022/04/04 16:25:03;;;;;;;10.30;7.47;;;;;;;7.83;47.89;99238.63;12181885;19;20035;-79
2022/04/04 16:29:05;;;;;;;11.93;7.40;;;;;;;7.71;48.29;99237.88;12207093;19;20010;-79
2022/04/04 16:33:07;;;;;;;9.20;6.67;;;;;;;7.74;48.01;99234.63;12208235;19;20003;-79
2022/04/04 16:37:09;;;;;;;9.60;6.60;;;;;;;7.75;47.78;99237.13;12185350;19;20018;-80
2022/04/04 16:41:11;;;;;;;10.52;6.78;;;;;;;7.69;48.25;99232.63;12187634;19;20377;-79
2022/04/04 16:45:12;;;;;;;16.95;6.82;;;;;;;7.63;48.74;99247.31;12211358;19;20370;-79
2022/04/04 16:49:14;;;;;;;8.65;6.70;;;;;;;7.61;48.60;99243.13;12179786;19;20031;-78
2022/04/04 16:53:16;;;;;;;10.33;7.07;;;;;;;7.48;49.13;99247.00;12209453;19;20010;-79
2022/04/04 16:57:19;;;;;;;9.27;6.75;;;;;;;7.45;49.54;99248.31;12198517;19;20010;-79
2022/04/04 17:01:20;;;;;;;9.00;6.45;;;;;;;7.40;49.58;99253.69;12181389;19;20355;-78
2022/04/04 17:05:22;;;;;;;8.25;6.72;;;;;;;7.36;49.78;99248.97;12198537;19;20007;-79
2022/04/04 17:09:24;;;;;;;11.40;7.22;;;;;;;7.32;50.17;99243.13;12195551;19;20006;-79
2022/04/04 17:13:27;;;;;;;11.32;7.18;;;;;;;7.27;50.07;99235.63;12177753;19;20028;-79
2022/04/04 17:17:30;;;;;;;10.13;7.30;;;;;;;7.27;50.07;99224.66;12196599;19;20014;-79
2022/04/04 17:21:32;;;;;;;10.52;6.90;;;;;;;7.25;50.38;99225.97;12205920;19;20010;-77
2022/04/04 17:25:36;;;;;;;10.20;7.72;;;;;;;7.22;50.73;99243.72;12176046;19;20007;-79
2022/04/04 17:29:38;;;;;;;10.65;7.78;;;;;;;7.26;50.87;99233.97;12199840;19;20018;-81
2022/04/04 17:33:40;;;;;;;10.07;7.37;;;;;;;7.17;51.92;99223.59;12202332;19;20007;-79
2022/04/04 17:37:42;;;;;;;13.68;8.00;;;;;;;7.08;51.94;99210.31;12176586;19;20616;-79
2022/04/04 17:41:45;;;;;;;13.88;8.63;;;;;;;7.05;52.08;99215.44;12192854;19;20018;-79
2022/04/04 17:45:46;;;;;;;10.25;7.63;;;;;;;7.03;52.02;99203.88;12197782;19;20020;-79
2022/04/04 17:49:48;;;;;;;13.10;8.77;;;;;;;7.08;51.61;99206.75;12202917;19;20031;-79
2022/04/04 17:53:50;;;;;;;14.45;9.02;;;;;;;7.09;51.99;99202.91;12192277;19;20095;-80
2022/04/04 17:57:52;;;;;;;13.32;8.48;;;;;;;7.04;52.07;99219.22;12178574;19;20447;-79
2022/04/04 18:01:54;;;;;;;13.40;8.95;;;;;;;7.12;52.18;99210.66;12200699;19;20017;-80
2022/04/04 18:05:56;;;;;;;12.57;8.23;;;;;;;7.05;52.81;99209.97;12200962;19;20484;-79
2022/04/04 18:09:57;;;;;;;15.82;9.32;;;;;;;7.04;53.53;99202.78;12193225;19;20567;-80
2022/04/04 18:13:59;;;;;;;18.25;10.02;;;;;;;7.00;53.21;99212.59;12208820;19;20002;-79
2022/04/04 18:18:02;;;;;;;10.07;7.22;;;;;;;7.03;53.33;99217.59;12224362;19;20010;-81
2022/04/04 18:22:10;;;;;;;15.57;9.43;;;;;;;6.99;53.60;99210.91;12198116;19;20255;-80
2022/04/04 18:26:12;;;;;;;13.63;9.60;;;;;;;7.02;53.84;99221.38;12213640;19;20468;-79
2022/04/04 18:30:14;;;;;;;14.73;10.30;;;;;;;6.96;54.45;99211.38;12213659;19;20006;-79
2022/04/04 18:34:17;;;;;;;17.05;10.20;;;;;;;6.91;54.98;99205.81;12190829;19;20021;-79
2022/04/04 18:38:18;;;;;;;18.30;10.10;;;;;;;6.85;55.14;99197.47;12215623;19;19998;-79
2022/04/04 18:42:21;;;;;;;16.00;10.10;;;;;;;6.88;55.00;99209.03;12221004;19;20251;-78
2022/04/04 18:46:22;;;;;;;17.00;10.32;;;;;;;6.87;55.87;99207.34;12199653;19;20030;-80
2022/04/04 18:50:24;;;;;;;16.92;10.75;;;;;;;6.81;56.32;99212.75;12208303;19;20024;-79
2022/04/04 18:54:26;;;;;;;17.25;11.90;;;;;;;6.83;56.35;99217.97;12216096;19;20086;-79
2022/04/04 18:58:27;;;;;;;16.95;11.07;;;;;;;6.85;56.33;99224.88;12194215;19;20484;-79
2022/04/04 19:02:29;;;;;;;19.92;12.82;;;;;;;6.92;56.03;99232.13;12205478;19;20018;-78